createdAt,value
2023-05-13T00:00:15.605Z,1022.863623
2023-05-13T00:05:16.284Z,1022.864404
2023-05-13T00:10:15.991Z,1022.823886
2023-05-13T00:15:16.212Z,1022.824653
2023-05-13T00:20:16.355Z,1022.882948
2023-05-13T00:25:16.283Z,1022.840799
2023-05-13T00:30:15.739Z,1022.840118
2023-05-13T00:35:16.145Z,1022.819992
2023-05-13T00:40:15.688Z,1022.758980
2023-05-13T00:45:16.178Z,1022.780674
2023-05-13T00:50:15.947Z,1022.780651
2023-05-13T00:55:15.761Z,1022.720124
2023-05-13T01:00:16.366Z,1022.678447
2023-05-13T01:05:16.545Z,1022.675929
2023-05-13T01:10:16.360Z,1022.634538
2023-05-13T01:15:16.510Z,1022.676153
2023-05-13T01:20:17.071Z,1022.739658
2023-05-13T01:25:16.265Z,1022.720061
2023-05-13T01:30:15.736Z,1022.717311
2023-05-13T01:35:17.178Z,1022.758229
2023-05-13T01:40:31.235Z,1022.717206
2023-05-13T01:45:16.675Z,1022.737596
2023-05-13T01:50:15.868Z,1022.739163
2023-05-13T01:55:16.041Z,1022.739342
2023-05-13T02:00:16.171Z,1022.818196
2023-05-13T02:05:15.889Z,1022.799030
2023-05-13T02:10:16.577Z,1022.779148
2023-05-13T02:15:16.279Z,1022.740603
2023-05-13T02:20:16.441Z,1022.818480
2023-05-13T02:25:15.788Z,1022.821688
2023-05-13T02:30:16.714Z,1022.839754
2023-05-13T02:35:16.861Z,1022.822573
2023-05-13T02:40:16.044Z,1022.844385
2023-05-13T02:45:16.011Z,1022.903057
2023-05-13T02:50:15.828Z,1022.845520
2023-05-13T02:55:15.891Z,1022.967833
2023-05-13T03:00:15.974Z,1023.006426
2023-05-13T03:05:16.358Z,1023.030120
2023-05-13T03:10:15.700Z,1023.072083
2023-05-13T03:15:16.143Z,1023.135057
2023-05-13T03:20:15.720Z,1023.156836
2023-05-13T03:25:16.202Z,1023.159164
2023-05-13T03:30:16.365Z,1023.243126
2023-05-13T03:35:15.705Z,1023.222621
2023-05-13T03:40:16.558Z,1023.302782
2023-05-13T03:45:15.929Z,1023.343001
2023-05-13T03:50:16.189Z,1023.363861
2023-05-13T03:55:15.925Z,1023.423663
2023-05-13T04:00:16.182Z,1023.423829
2023-05-13T04:05:16.335Z,1023.463778
2023-05-13T04:10:16.000Z,1023.544884
2023-05-13T04:15:16.925Z,1023.584816
2023-05-13T04:20:15.723Z,1023.665436
2023-05-13T04:25:15.957Z,1023.765971
2023-05-13T04:30:17.026Z,1023.747208
2023-05-13T04:35:16.528Z,1023.808295
2023-05-13T04:40:15.794Z,1023.828414
2023-05-13T04:45:16.324Z,1023.849117
2023-05-13T04:50:15.619Z,1023.829274
2023-05-13T04:55:15.923Z,1023.931017
2023-05-13T05:00:15.740Z,1023.891181
2023-05-13T05:05:18.207Z,1023.932067
2023-05-13T05:10:16.159Z,1023.912106
2023-05-13T05:15:16.367Z,1023.952922
2023-05-13T05:20:16.181Z,1023.973656
2023-05-13T05:25:16.072Z,1023.994539
2023-05-13T05:30:16.268Z,1024.054955
2023-05-13T05:35:16.100Z,1024.035173
2023-05-13T05:40:16.052Z,1024.076084
2023-05-13T05:45:16.338Z,1024.097330
2023-05-13T05:50:16.641Z,1024.118794
2023-05-13T05:55:16.145Z,1024.160915
2023-05-13T06:00:16.455Z,1024.221491
2023-05-13T06:05:15.963Z,1024.322665
2023-05-13T06:10:16.284Z,1024.345535
2023-05-13T06:15:16.206Z,1024.306692
2023-05-13T06:20:16.845Z,1024.309002
2023-05-13T06:25:16.686Z,1024.350831
2023-05-13T06:30:16.474Z,1024.351248
2023-05-13T06:35:16.189Z,1024.370793
2023-05-13T06:40:15.885Z,1024.331161
2023-05-13T06:45:16.185Z,1024.331832
2023-05-13T06:50:16.393Z,1024.352061
2023-05-13T06:55:16.480Z,1024.372202
2023-05-13T07:00:15.925Z,1024.413021
2023-05-13T07:05:16.887Z,1024.512588
2023-05-13T07:10:15.696Z,1024.613452
2023-05-13T07:15:15.893Z,1024.597816
2023-05-13T07:20:16.242Z,1024.676812
2023-05-13T07:25:15.938Z,1024.675200
2023-05-13T07:30:15.710Z,1024.655599
2023-05-13T07:35:16.448Z,1024.776125
2023-05-13T07:40:15.995Z,1024.837230
2023-05-13T07:45:15.815Z,1024.796773
2023-05-13T07:50:16.532Z,1024.897012
2023-05-13T07:55:15.687Z,1024.917073
2023-05-13T08:00:16.328Z,1024.957909
2023-05-13T08:05:16.024Z,1024.998004
2023-05-13T08:10:16.327Z,1024.959028
2023-05-13T08:15:15.926Z,1024.940367
2023-05-13T08:20:16.720Z,1024.939590
2023-05-13T08:25:16.523Z,1024.879721
2023-05-13T08:30:16.137Z,1024.881039
2023-05-13T08:35:16.246Z,1024.881366
2023-05-13T08:40:17.010Z,1024.801438
2023-05-13T08:45:16.470Z,1024.863418
2023-05-13T08:50:16.517Z,1024.884785
2023-05-13T08:55:15.895Z,1024.885471
2023-05-13T09:00:15.805Z,1024.907043
2023-05-13T09:05:16.120Z,1024.929760
2023-05-13T09:10:16.051Z,1024.928281
2023-05-13T09:15:16.172Z,1024.988843
2023-05-13T09:20:15.783Z,1024.988037
2023-05-13T09:25:16.237Z,1025.006907
2023-05-13T09:30:16.023Z,1025.007318
2023-05-13T09:35:15.774Z,1024.987159
2023-05-13T09:40:15.986Z,1025.007173
2023-05-13T09:45:15.851Z,1025.008585
2023-05-13T09:50:16.194Z,1025.007376
2023-05-13T09:55:15.933Z,1025.028292
2023-05-13T10:00:28.642Z,1025.089270
2023-05-13T10:05:16.351Z,1025.090126
2023-05-13T10:10:16.288Z,1025.069619
2023-05-13T10:15:15.852Z,1025.128332
2023-05-13T10:20:16.321Z,1025.106993
2023-05-13T10:25:15.841Z,1025.086948
2023-05-13T10:30:15.927Z,1025.086443
2023-05-13T10:35:16.039Z,1025.087147
2023-05-13T10:40:15.788Z,1025.047845
2023-05-13T10:45:16.633Z,1025.049005
2023-05-13T10:50:15.789Z,1025.130114
2023-05-13T10:55:15.916Z,1025.189394
2023-05-13T11:00:16.117Z,1025.168784
2023-05-13T11:05:15.991Z,1025.190079
2023-05-13T11:10:15.980Z,1025.210763
2023-05-13T11:15:15.955Z,1025.212176
2023-05-13T11:20:15.820Z,1025.193596
2023-05-13T11:25:16.005Z,1025.233889
2023-05-13T11:30:16.553Z,1025.294585
2023-05-13T11:35:16.318Z,1025.294831
2023-05-13T11:40:17.427Z,1025.253669
2023-05-13T11:45:15.916Z,1025.312974
2023-05-13T11:50:16.451Z,1025.373418
2023-05-13T11:55:16.266Z,1025.354730
2023-05-13T12:00:16.273Z,1025.355336
2023-05-13T12:05:16.383Z,1025.296247
2023-05-13T12:10:15.956Z,1025.296213
2023-05-13T12:15:16.158Z,1025.356185
2023-05-13T12:20:16.548Z,1025.356269
2023-05-13T12:25:15.672Z,1025.417079
2023-05-13T12:30:16.287Z,1025.416878
2023-05-13T12:35:15.774Z,1025.438840
2023-05-13T12:40:16.488Z,1025.441247
2023-05-13T12:45:15.861Z,1025.521987
2023-05-13T12:50:16.362Z,1025.581676
2023-05-13T12:55:15.870Z,1025.660323
2023-05-13T13:00:16.458Z,1025.658176
2023-05-13T13:05:15.974Z,1025.696538
2023-05-13T13:10:16.418Z,1025.694817
2023-05-13T13:15:15.840Z,1025.733531
2023-05-13T13:20:17.354Z,1025.811469
2023-05-13T13:25:15.933Z,1025.911677
2023-05-13T13:30:17.401Z,1025.912325
2023-05-13T13:35:16.884Z,1025.891377
2023-05-13T13:40:16.105Z,1025.948261
2023-05-13T13:45:15.981Z,1025.987248
2023-05-13T13:50:16.332Z,1025.986900
2023-05-13T13:55:15.983Z,1026.081196
2023-05-13T14:00:15.911Z,1026.153858
2023-05-13T14:05:16.226Z,1026.252052
2023-05-13T14:10:16.507Z,1026.296493
2023-05-13T14:15:15.885Z,1026.320081
2023-05-13T14:20:15.730Z,1026.379446
2023-05-13T14:25:15.754Z,1026.338266
2023-05-13T14:30:16.720Z,1026.361055
2023-05-13T14:35:15.747Z,1026.301916
2023-05-13T14:40:15.746Z,1026.301087
2023-05-13T14:45:18.261Z,1026.200710
2023-05-13T14:50:15.945Z,1026.301400
2023-05-13T14:55:15.983Z,1026.301468
2023-05-13T15:00:16.533Z,1026.360005
2023-05-13T15:05:15.730Z,1026.479580
2023-05-13T15:10:15.877Z,1026.478653
2023-05-13T15:15:16.392Z,1026.478621
2023-05-13T15:20:15.907Z,1026.418351
2023-05-13T15:25:16.212Z,1026.458909
2023-05-13T15:30:15.848Z,1026.479968
2023-05-13T15:35:16.313Z,1026.518323
2023-05-13T15:40:15.789Z,1026.497017
2023-05-13T15:45:16.977Z,1026.558319
2023-05-13T15:50:16.501Z,1026.558906
2023-05-13T15:55:16.368Z,1026.477099
2023-05-13T16:00:16.430Z,1026.514004
2023-05-13T16:05:16.491Z,1026.391316
2023-05-13T16:10:15.877Z,1026.373859
2023-05-13T16:15:16.649Z,1026.355364
2023-05-13T16:20:16.711Z,1026.474274
2023-05-13T16:25:16.072Z,1026.450953
2023-05-13T16:30:16.525Z,1026.390547
2023-05-13T16:35:16.353Z,1026.368455
2023-05-13T16:40:16.189Z,1026.389425
2023-05-13T16:45:15.848Z,1026.326821
2023-05-13T16:50:16.193Z,1026.264294
2023-05-13T16:55:16.534Z,1026.142649
2023-05-13T17:00:16.320Z,1026.099933
2023-05-13T17:05:15.854Z,1026.059596
2023-05-13T17:10:16.508Z,1026.079513
2023-05-13T17:15:15.873Z,1026.139391
2023-05-13T17:20:16.249Z,1026.139687
2023-05-13T17:25:15.898Z,1026.078112
2023-05-13T17:30:15.851Z,1026.018405
2023-05-13T17:35:16.198Z,1025.978535
2023-05-13T17:40:17.082Z,1025.976184
2023-05-13T17:45:15.808Z,1025.856964
2023-05-13T17:50:16.033Z,1025.852364
2023-05-13T17:55:15.765Z,1025.828680
2023-05-13T18:00:15.958Z,1025.788985
2023-05-13T18:05:16.260Z,1025.725696
2023-05-13T18:10:16.706Z,1025.665867
2023-05-13T18:15:17.353Z,1025.604785
2023-05-13T18:20:16.874Z,1025.542733
2023-05-13T18:25:15.959Z,1025.560856
2023-05-13T18:30:16.539Z,1025.563260
2023-05-13T18:35:16.442Z,1025.479811
2023-05-13T18:40:15.913Z,1025.519108
2023-05-13T18:45:15.809Z,1025.482107
2023-05-13T18:50:17.791Z,1025.437659
2023-05-13T18:55:16.898Z,1025.418222
2023-05-13T19:00:15.732Z,1025.455068
2023-05-13T19:05:17.446Z,1025.415992
2023-05-13T19:10:16.988Z,1025.335444
2023-05-13T19:15:16.993Z,1025.212537
2023-05-13T19:20:16.314Z,1025.129581
2023-05-13T19:25:17.439Z,1025.033012
2023-05-13T19:30:16.376Z,1025.011879
2023-05-13T19:35:16.563Z,1024.972406
2023-05-13T19:40:16.458Z,1024.810142
2023-05-13T19:45:16.017Z,1024.748056
2023-05-13T19:50:15.866Z,1024.648337
2023-05-13T19:55:15.795Z,1024.525176
2023-05-13T20:00:15.774Z,1024.442006
2023-05-13T20:05:15.900Z,1024.464430
2023-05-13T20:10:15.796Z,1024.345837
2023-05-13T20:15:18.362Z,1024.263866
2023-05-13T20:20:15.690Z,1024.281463
2023-05-13T20:25:16.298Z,1024.202942
2023-05-13T20:30:16.625Z,1024.179083
2023-05-13T20:35:15.854Z,1024.175161
2023-05-13T20:40:15.951Z,1024.058539
2023-05-13T20:45:16.158Z,1023.959958
2023-05-13T20:50:15.740Z,1023.896943
2023-05-13T20:55:17.256Z,1023.876203
2023-05-13T21:00:15.924Z,1023.755696
2023-05-13T21:05:15.879Z,1023.677519
2023-05-13T21:10:16.066Z,1023.616090
2023-05-13T21:15:16.334Z,1023.536315
2023-05-13T21:20:16.721Z,1023.536000
2023-05-13T21:25:16.175Z,1023.413835
2023-05-13T21:30:16.754Z,1023.313271
2023-05-13T21:35:16.948Z,1023.193047
2023-05-13T21:40:17.059Z,1023.215627
2023-05-13T21:45:15.857Z,1023.116472
2023-05-13T21:50:16.301Z,1023.115696
2023-05-13T21:55:16.854Z,1023.036567
2023-05-13T22:00:16.391Z,1022.976915
2023-05-13T22:05:16.112Z,1022.875847
2023-05-13T22:10:16.118Z,1022.834718
2023-05-13T22:15:16.011Z,1022.753727
2023-05-13T22:20:16.378Z,1022.734099
2023-05-13T22:25:16.032Z,1022.612718
2023-05-13T22:30:15.969Z,1022.591594
2023-05-13T22:35:16.287Z,1022.533387
2023-05-13T22:40:15.692Z,1022.432775
2023-05-13T22:45:16.063Z,1022.371646
2023-05-13T22:50:15.704Z,1022.291839
2023-05-13T22:55:16.099Z,1022.249986
2023-05-13T23:00:16.329Z,1022.150669
2023-05-13T23:05:15.736Z,1022.071566
2023-05-13T23:10:16.117Z,1022.049819
2023-05-13T23:15:15.744Z,1022.008146
2023-05-13T23:20:16.105Z,1021.989562
2023-05-13T23:25:16.421Z,1021.888313
2023-05-13T23:30:16.008Z,1021.749686
2023-05-13T23:35:16.068Z,1021.730365
2023-05-13T23:40:17.201Z,1021.689478
2023-05-13T23:45:15.663Z,1021.630239
2023-05-13T23:50:15.844Z,1021.650170
2023-05-13T23:55:15.637Z,1021.550540
